PWSweather.com
Personal Weather Stations
Station Observations
PALIDDU
BagheriaIT 90011

BagheriaIT 90011

Lat: 38.0771377, Lon: 13.5044022

Elevation: 289

Station Type: WS-1080

http://meteo40.altervista.org

High Low Average
Temperature 75.7°F24.3°F 65.7°F18.7°F 69.9°F21.1°F
Dew Point 63.5°F17.5°F 53.7°F12.1°F 58.5°F14.7°F
Winds 6.0 mph NW9.7 mph NW Calm Calm 1.3 mph 2.1 mph
Wind Gusts 10.7 mph17.2 mph -- 3.8 mph6.1 mph
Humidity 77% 53% 68%
Pressure 30.15 in1021.00 in 29.98 in1015.20 in -
Precipitation 0.00 in0.00 in - -
Hour Temp Dew Point Humidity Winds Wind Gusts Pressure Precip Precip Rate Daily Precip Total
12:00 AM 67.1°F19.5°C 59.3°F15.2°C 76% 0.4 mph SSW0.6 kmh SSW 3.1 mph5.0 kmh 30.15 in1021.0 mb 0.00 in0.0 mm 0.00 in0.0 mm 0.00 in0.0 mm
12:15 AM 66.9°F19.4°C 58.4°F14.7°C 74% 0.4 mph SSW0.6 kmh SSW 1.6 mph2.6 kmh 30.14 in1020.7 mb 0.00 in0.0 mm 0.00 in0.0 mm 0.00 in0.0 mm
12:30 AM 66.9°F19.4°C 58.0°F14.4°C 73% 0.1 mph SSW0.2 kmh SSW 1.6 mph2.6 kmh 30.15 in1021.0 mb 0.00 in0.0 mm 0.00 in0.0 mm 0.00 in0.0 mm
12:45 AM 67.1°F19.5°C 58.2°F14.6°C 73% Calm Calm 0.7 mph1.1 kmh 30.15 in1021.0 mb 0.00 in0.0 mm 0.00 in0.0 mm 0.00 in0.0 mm
01:00 AM 67.1°F19.5°C 58.6°F14.8°C 74% 0.1 mph SSW0.2 kmh SSW 0.7 mph1.1 kmh 30.15 in1021.0 mb 0.00 in0.0 mm 0.00 in0.0 mm 0.00 in0.0 mm
01:15 AM 66.9°F19.4°C 58.4°F14.7°C 74% 0.1 mph S0.2 kmh S 1.6 mph2.6 kmh 30.14 in1020.7 mb 0.00 in0.0 mm 0.00 in0.0 mm 0.00 in0.0 mm
01:30 AM 66.7°F19.3°C 58.2°F14.6°C 74% 0.4 mph S0.6 kmh S 3.1 mph5.0 kmh 30.14 in1020.7 mb 0.00 in0.0 mm 0.00 in0.0 mm 0.00 in0.0 mm
01:45 AM 66.7°F19.3°C 58.6°F14.8°C 75% 0.7 mph S1.1 kmh S 2.2 mph3.5 kmh 30.14 in1020.7 mb 0.00 in0.0 mm 0.00 in0.0 mm 0.00 in0.0 mm
02:00 AM 66.6°F19.2°C 58.4°F14.7°C 75% 0.8 mph S1.3 kmh S 3.1 mph5.0 kmh 30.14 in1020.7 mb 0.00 in0.0 mm 0.00 in0.0 mm 0.00 in0.0 mm
02:15 AM 66.2°F19.0°C 57.3°F14.1°C 73% 0.7 mph S1.1 kmh S 3.1 mph5.0 kmh 30.13 in1020.3 mb 0.00 in0.0 mm 0.00 in0.0 mm 0.00 in0.0 mm
02:30 AM 66.2°F19.0°C 57.3°F14.1°C 73% 0.2 mph S0.3 kmh S 1.6 mph2.6 kmh 30.13 in1020.3 mb 0.00 in0.0 mm 0.00 in0.0 mm 0.00 in0.0 mm
02:45 AM 66.2°F19.0°C 56.5°F13.6°C 71% 0.8 mph S1.3 kmh S 3.1 mph5.0 kmh 30.12 in1020.0 mb 0.00 in0.0 mm 0.00 in0.0 mm 0.00 in0.0 mm
03:00 AM 66.4°F19.1°C 55.5°F13.1°C 68% 1.2 mph S1.9 kmh S 3.1 mph5.0 kmh 30.12 in1020.0 mb 0.00 in0.0 mm 0.00 in0.0 mm 0.00 in0.0 mm
03:15 AM 66.6°F19.2°C 54.9°F12.7°C 66% 1.5 mph SSW2.4 kmh SSW 4.5 mph7.2 kmh 30.12 in1020.0 mb 0.00 in0.0 mm 0.00 in0.0 mm 0.00 in0.0 mm
03:30 AM 66.6°F19.2°C 54.5°F12.5°C 65% 1.3 mph SSW2.1 kmh SSW 3.8 mph6.1 kmh 30.12 in1020.0 mb 0.00 in0.0 mm 0.00 in0.0 mm 0.00 in0.0 mm
03:45 AM 66.6°F19.2°C 54.0°F12.2°C 64% 0.5 mph SSW0.8 kmh SSW 3.1 mph5.0 kmh 30.11 in1019.6 mb 0.00 in0.0 mm 0.00 in0.0 mm 0.00 in0.0 mm
04:00 AM 66.4°F19.1°C 54.3°F12.4°C 65% 1.3 mph SSW2.1 kmh SSW 3.8 mph6.1 kmh 30.11 in1019.6 mb 0.00 in0.0 mm 0.00 in0.0 mm 0.00 in0.0 mm
04:15 AM 66.4°F19.1°C 54.3°F12.4°C 65% 0.3 mph SSW0.5 kmh SSW 2.2 mph3.5 kmh 30.12 in1020.0 mb 0.00 in0.0 mm 0.00 in0.0 mm 0.00 in0.0 mm
04:30 AM 66.2°F19.0°C 53.7°F12.1°C 64% 0.5 mph SSW0.8 kmh SSW 2.2 mph3.5 kmh 30.12 in1020.0 mb 0.00 in0.0 mm 0.00 in0.0 mm 0.00 in0.0 mm
04:45 AM 66.2°F19.0°C 54.1°F12.3°C 65% 0.2 mph SSW0.3 kmh SSW 1.6 mph2.6 kmh 30.11 in1019.6 mb 0.00 in0.0 mm 0.00 in0.0 mm 0.00 in0.0 mm
05:00 AM 66.2°F19.0°C 54.1°F12.3°C 65% Calm Calm -- 30.11 in1019.6 mb 0.00 in0.0 mm 0.00 in0.0 mm 0.00 in0.0 mm
05:15 AM 66.0°F18.9°C 54.8°F12.7°C 67% Calm Calm -- 30.12 in1020.0 mb 0.00 in0.0 mm 0.00 in0.0 mm 0.00 in0.0 mm
05:30 AM 66.0°F18.9°C 54.8°F12.7°C 67% Calm Calm 0.7 mph1.1 kmh 30.13 in1020.3 mb 0.00 in0.0 mm 0.00 in0.0 mm 0.00 in0.0 mm
05:45 AM 66.0°F18.9°C 54.8°F12.7°C 67% 0.4 mph SSW0.6 kmh SSW 2.2 mph3.5 kmh 30.12 in1020.0 mb 0.00 in0.0 mm 0.00 in0.0 mm 0.00 in0.0 mm
06:00 AM 65.8°F18.8°C 55.0°F12.8°C 68% Calm Calm 1.6 mph2.6 kmh 30.12 in1020.0 mb 0.00 in0.0 mm 0.00 in0.0 mm 0.00 in0.0 mm
06:15 AM 65.8°F18.8°C 55.4°F13.0°C 69% Calm Calm 1.6 mph2.6 kmh 30.12 in1020.0 mb 0.00 in0.0 mm 0.00 in0.0 mm 0.00 in0.0 mm
06:30 AM 65.8°F18.8°C 55.8°F13.2°C 70% 0.1 mph S0.2 kmh S 1.6 mph2.6 kmh 30.12 in1020.0 mb 0.00 in0.0 mm 0.00 in0.0 mm 0.00 in0.0 mm
06:45 AM 65.7°F18.7°C 55.6°F13.1°C 70% 0.4 mph S0.6 kmh S 3.1 mph5.0 kmh 30.12 in1020.0 mb 0.00 in0.0 mm 0.00 in0.0 mm 0.00 in0.0 mm
07:00 AM 66.0°F18.9°C 55.2°F12.9°C 68% 0.5 mph S0.8 kmh S 2.2 mph3.5 kmh 30.12 in1020.0 mb 0.00 in0.0 mm 0.00 in0.0 mm 0.00 in0.0 mm
07:15 AM 66.2°F19.0°C 54.1°F12.3°C 65% 0.4 mph S0.6 kmh S 2.2 mph3.5 kmh 30.13 in1020.3 mb 0.00 in0.0 mm 0.00 in0.0 mm 0.00 in0.0 mm
07:30 AM 66.4°F19.1°C 54.3°F12.4°C 65% 0.4 mph S0.6 kmh S 2.2 mph3.5 kmh 30.13 in1020.3 mb 0.00 in0.0 mm 0.00 in0.0 mm 0.00 in0.0 mm
07:45 AM 66.7°F19.3°C 54.6°F12.6°C 65% Calm Calm 0.7 mph1.1 kmh 30.14 in1020.7 mb 0.00 in0.0 mm 0.00 in0.0 mm 0.00 in0.0 mm
08:00 AM 67.3°F19.6°C 55.6°F13.1°C 66% Calm Calm -- 30.13 in1020.3 mb 0.00 in0.0 mm 0.00 in0.0 mm 0.00 in0.0 mm
08:15 AM 67.8°F19.9°C 56.5°F13.6°C 67% Calm Calm -- 30.13 in1020.3 mb 0.00 in0.0 mm 0.00 in0.0 mm 0.00 in0.0 mm
08:30 AM 68.2°F20.1°C 55.6°F13.1°C 64% Calm Calm 0.7 mph1.1 kmh 30.14 in1020.7 mb 0.00 in0.0 mm 0.00 in0.0 mm 0.00 in0.0 mm
08:45 AM 68.9°F20.5°C 55.4°F13.0°C 62% 0.5 mph SSW0.8 kmh SSW 2.2 mph3.5 kmh 30.14 in1020.7 mb 0.00 in0.0 mm 0.00 in0.0 mm 0.00 in0.0 mm
09:00 AM 69.6°F20.9°C 54.2°F12.3°C 58% 0.4 mph WNW0.6 kmh WNW 1.6 mph2.6 kmh 30.14 in1020.7 mb 0.00 in0.0 mm 0.00 in0.0 mm 0.00 in0.0 mm
09:15 AM 70.3°F21.3°C 54.4°F12.4°C 57% Calm Calm -- 30.13 in1020.3 mb 0.00 in0.0 mm 0.00 in0.0 mm 0.00 in0.0 mm
09:30 AM 71.2°F21.8°C 54.8°F12.7°C 56% 0.2 mph N0.3 kmh N 1.6 mph2.6 kmh 30.13 in1020.3 mb 0.00 in0.0 mm 0.00 in0.0 mm 0.00 in0.0 mm
09:45 AM 72.0°F22.2°C 55.4°F13.0°C 56% 0.9 mph N1.4 kmh N 3.8 mph6.1 kmh 30.12 in1020.0 mb 0.00 in0.0 mm 0.00 in0.0 mm 0.00 in0.0 mm
10:00 AM 72.7°F22.6°C 57.1°F13.9°C 58% 0.6 mph NNE1.0 kmh NNE 3.8 mph6.1 kmh 30.11 in1019.6 mb 0.00 in0.0 mm 0.00 in0.0 mm 0.00 in0.0 mm
10:15 AM 73.4°F23.0°C 58.7°F14.8°C 60% 1.6 mph NE2.6 kmh NE 4.5 mph7.2 kmh 30.12 in1020.0 mb 0.00 in0.0 mm 0.00 in0.0 mm 0.00 in0.0 mm
10:30 AM 73.6°F23.1°C 58.9°F14.9°C 60% 1.3 mph NE2.1 kmh NE 3.8 mph6.1 kmh 30.11 in1019.6 mb 0.00 in0.0 mm 0.00 in0.0 mm 0.00 in0.0 mm
10:45 AM 73.8°F23.2°C 57.6°F14.2°C 57% 2.1 mph NE3.4 kmh NE 4.5 mph7.2 kmh 30.11 in1019.6 mb 0.00 in0.0 mm 0.00 in0.0 mm 0.00 in0.0 mm
11:00 AM 73.6°F23.1°C 56.4°F13.6°C 55% 1.8 mph ENE2.9 kmh ENE 5.4 mph8.7 kmh 30.10 in1019.3 mb 0.00 in0.0 mm 0.00 in0.0 mm 0.00 in0.0 mm
11:15 AM 73.8°F23.2°C 56.1°F13.4°C 54% 2.4 mph ENE3.9 kmh ENE 6.0 mph9.7 kmh 30.10 in1019.3 mb 0.00 in0.0 mm 0.00 in0.0 mm 0.00 in0.0 mm
11:30 AM 74.1°F23.4°C 56.4°F13.6°C 54% 1.4 mph ENE2.3 kmh ENE 4.5 mph7.2 kmh 30.09 in1019.0 mb 0.00 in0.0 mm 0.00 in0.0 mm 0.00 in0.0 mm
11:45 AM 74.3°F23.5°C 56.1°F13.4°C 53% 1.1 mph E1.8 kmh E 3.8 mph6.1 kmh 30.09 in1019.0 mb 0.00 in0.0 mm 0.00 in0.0 mm 0.00 in0.0 mm
12:00 PM 74.8°F23.8°C 59.1°F15.1°C 58% 1.9 mph ENE3.1 kmh ENE 4.5 mph7.2 kmh 30.09 in1019.0 mb 0.00 in0.0 mm 0.00 in0.0 mm 0.00 in0.0 mm
12:15 PM 74.8°F23.8°C 59.6°F15.3°C 59% 1.6 mph ENE2.6 kmh ENE 4.5 mph7.2 kmh 30.07 in1018.3 mb 0.00 in0.0 mm 0.00 in0.0 mm 0.00 in0.0 mm
12:30 PM 75.4°F24.1°C 57.6°F14.2°C 54% 1.3 mph NE2.1 kmh NE 4.5 mph7.2 kmh 30.07 in1018.3 mb 0.00 in0.0 mm 0.00 in0.0 mm 0.00 in0.0 mm
12:45 PM 75.7°F24.3°C 59.5°F15.3°C 57% 2.7 mph NE4.3 kmh NE 6.9 mph11.1 kmh 30.07 in1018.3 mb 0.00 in0.0 mm 0.00 in0.0 mm 0.00 in0.0 mm
01:00 PM 75.0°F23.9°C 59.3°F15.2°C 58% 5.2 mph N8.4 kmh N 9.8 mph15.8 kmh 30.06 in1017.9 mb 0.00 in0.0 mm 0.00 in0.0 mm 0.00 in0.0 mm
01:15 PM 73.9°F23.3°C 61.0°F16.1°C 64% 5.6 mph NNW9.0 kmh NNW 9.8 mph15.8 kmh 30.05 in1017.6 mb 0.00 in0.0 mm 0.00 in0.0 mm 0.00 in0.0 mm
01:30 PM 73.8°F23.2°C 60.9°F16.1°C 64% 4.6 mph NW7.4 kmh NW 9.2 mph14.8 kmh 30.05 in1017.6 mb 0.00 in0.0 mm 0.00 in0.0 mm 0.00 in0.0 mm
01:45 PM 73.0°F22.8°C 61.0°F16.1°C 66% 5.5 mph NW8.9 kmh NW 10.7 mph17.2 kmh 30.06 in1017.9 mb 0.00 in0.0 mm 0.00 in0.0 mm 0.00 in0.0 mm
02:00 PM 72.0°F22.2°C 62.9°F17.2°C 73% 6.0 mph NW9.7 kmh NW 10.7 mph17.2 kmh 30.06 in1017.9 mb 0.00 in0.0 mm 0.00 in0.0 mm 0.00 in0.0 mm
02:15 PM 73.0°F22.8°C 63.5°F17.5°C 72% 3.4 mph NW5.5 kmh NW 9.8 mph15.8 kmh 30.04 in1017.3 mb 0.00 in0.0 mm 0.00 in0.0 mm 0.00 in0.0 mm
02:30 PM 72.9°F22.7°C 63.3°F17.4°C 72% 2.7 mph NNW4.3 kmh NNW 6.9 mph11.1 kmh 30.04 in1017.3 mb 0.00 in0.0 mm 0.00 in0.0 mm 0.00 in0.0 mm
02:45 PM 73.0°F22.8°C 63.5°F17.5°C 72% 1.6 mph NNW2.6 kmh NNW 4.5 mph7.2 kmh 30.04 in1017.3 mb 0.00 in0.0 mm 0.00 in0.0 mm 0.00 in0.0 mm
03:00 PM 73.4°F23.0°C 62.2°F16.8°C 68% 0.9 mph NNW1.4 kmh NNW 3.8 mph6.1 kmh 30.03 in1016.9 mb 0.00 in0.0 mm 0.00 in0.0 mm 0.00 in0.0 mm
03:15 PM 74.3°F23.5°C 62.2°F16.8°C 66% 1.0 mph NNW1.6 kmh NNW 3.8 mph6.1 kmh 30.03 in1016.9 mb 0.00 in0.0 mm 0.00 in0.0 mm 0.00 in0.0 mm
03:30 PM 74.3°F23.5°C 62.7°F17.1°C 67% 2.0 mph N3.2 kmh N 5.4 mph8.7 kmh 30.02 in1016.6 mb 0.00 in0.0 mm 0.00 in0.0 mm 0.00 in0.0 mm
03:45 PM 74.1°F23.4°C 62.5°F16.9°C 67% 1.9 mph N3.1 kmh N 4.5 mph7.2 kmh 30.02 in1016.6 mb 0.00 in0.0 mm 0.00 in0.0 mm 0.00 in0.0 mm
04:00 PM 73.8°F23.2°C 62.2°F16.8°C 67% 1.8 mph ENE2.9 kmh ENE 6.0 mph9.7 kmh 30.03 in1016.9 mb 0.00 in0.0 mm 0.00 in0.0 mm 0.00 in0.0 mm
04:15 PM 73.0°F22.8°C 62.3°F16.8°C 69% 1.9 mph E3.1 kmh E 4.5 mph7.2 kmh 30.01 in1016.3 mb 0.00 in0.0 mm 0.00 in0.0 mm 0.00 in0.0 mm
04:30 PM 73.0°F22.8°C 62.7°F17.1°C 70% 1.0 mph SE1.6 kmh SE 3.8 mph6.1 kmh 30.02 in1016.6 mb 0.00 in0.0 mm 0.00 in0.0 mm 0.00 in0.0 mm
04:45 PM 73.0°F22.8°C 63.5°F17.5°C 72% 4.1 mph SE6.6 kmh SE 9.2 mph14.8 kmh 30.01 in1016.3 mb 0.00 in0.0 mm 0.00 in0.0 mm 0.00 in0.0 mm
05:00 PM 72.7°F22.6°C 62.0°F16.7°C 69% 2.2 mph E3.5 kmh E 6.0 mph9.7 kmh 30.01 in1016.3 mb 0.00 in0.0 mm 0.00 in0.0 mm 0.00 in0.0 mm
05:15 PM 72.5°F22.5°C 61.4°F16.3°C 68% 0.9 mph N1.4 kmh N 3.8 mph6.1 kmh 30.01 in1016.3 mb 0.00 in0.0 mm 0.00 in0.0 mm 0.00 in0.0 mm
05:30 PM 72.0°F22.2°C 60.9°F16.1°C 68% 1.9 mph N3.1 kmh N 4.5 mph7.2 kmh 30.00 in1015.9 mb 0.00 in0.0 mm 0.00 in0.0 mm 0.00 in0.0 mm
05:45 PM 71.8°F22.1°C 60.7°F15.9°C 68% 0.5 mph NNW0.8 kmh NNW 2.2 mph3.5 kmh 30.00 in1015.9 mb 0.00 in0.0 mm 0.00 in0.0 mm 0.00 in0.0 mm
06:00 PM 71.6°F22.0°C 60.1°F15.6°C 67% 1.2 mph NW1.9 kmh NW 3.1 mph5.0 kmh 30.01 in1016.3 mb 0.00 in0.0 mm 0.00 in0.0 mm 0.00 in0.0 mm
06:15 PM 71.2°F21.8°C 59.7°F15.4°C 67% 0.8 mph NW1.3 kmh NW 3.1 mph5.0 kmh 30.01 in1016.3 mb 0.00 in0.0 mm 0.00 in0.0 mm 0.00 in0.0 mm
06:30 PM 71.1°F21.7°C 60.0°F15.6°C 68% 1.7 mph NW2.7 kmh NW 4.5 mph7.2 kmh 30.00 in1015.9 mb 0.00 in0.0 mm 0.00 in0.0 mm 0.00 in0.0 mm
06:45 PM 70.9°F21.6°C 59.8°F15.4°C 68% 1.8 mph NW2.9 kmh NW 5.4 mph8.7 kmh 30.01 in1016.3 mb 0.00 in0.0 mm 0.00 in0.0 mm 0.00 in0.0 mm
07:00 PM 70.9°F21.6°C 59.4°F15.2°C 67% 2.5 mph WNW4.0 kmh WNW 5.4 mph8.7 kmh 30.01 in1016.3 mb 0.00 in0.0 mm 0.00 in0.0 mm 0.00 in0.0 mm
07:15 PM 71.1°F21.7°C 60.0°F15.6°C 68% 2.5 mph WNW4.0 kmh WNW 5.4 mph8.7 kmh 30.01 in1016.3 mb 0.00 in0.0 mm 0.00 in0.0 mm 0.00 in0.0 mm
07:30 PM 71.1°F21.7°C 60.0°F15.6°C 68% 2.0 mph WNW3.2 kmh WNW 6.0 mph9.7 kmh 30.01 in1016.3 mb 0.00 in0.0 mm 0.00 in0.0 mm 0.00 in0.0 mm
07:45 PM 70.2°F21.2°C 61.1°F16.2°C 73% 2.6 mph WNW4.2 kmh WNW 9.8 mph15.8 kmh 30.00 in1015.9 mb 0.00 in0.0 mm 0.00 in0.0 mm 0.00 in0.0 mm
08:00 PM 69.6°F20.9°C 61.7°F16.5°C 76% 0.6 mph WNW1.0 kmh WNW 3.1 mph5.0 kmh 30.00 in1015.9 mb 0.00 in0.0 mm 0.00 in0.0 mm 0.00 in0.0 mm
08:15 PM 69.8°F21.0°C 61.5°F16.4°C 75% 0.3 mph WNW0.5 kmh WNW 1.6 mph2.6 kmh 30.00 in1015.9 mb 0.00 in0.0 mm 0.00 in0.0 mm 0.00 in0.0 mm
08:30 PM 69.6°F20.9°C 61.7°F16.5°C 76% 0.2 mph WNW0.3 kmh WNW 1.6 mph2.6 kmh 30.00 in1015.9 mb 0.00 in0.0 mm 0.00 in0.0 mm 0.00 in0.0 mm
08:45 PM 69.4°F20.8°C 61.6°F16.4°C 76% Calm Calm 0.7 mph1.1 kmh 30.00 in1015.9 mb 0.00 in0.0 mm 0.00 in0.0 mm 0.00 in0.0 mm
09:00 PM 69.6°F20.9°C 61.4°F16.3°C 75% 0.6 mph WNW1.0 kmh WNW 5.4 mph8.7 kmh 30.01 in1016.3 mb 0.00 in0.0 mm 0.00 in0.0 mm 0.00 in0.0 mm
09:15 PM 69.6°F20.9°C 61.4°F16.3°C 75% 1.3 mph WNW2.1 kmh WNW 3.8 mph6.1 kmh 30.00 in1015.9 mb 0.00 in0.0 mm 0.00 in0.0 mm 0.00 in0.0 mm
09:30 PM 69.3°F20.7°C 61.4°F16.3°C 76% 0.8 mph WNW1.3 kmh WNW 3.8 mph6.1 kmh 30.00 in1015.9 mb 0.00 in0.0 mm 0.00 in0.0 mm 0.00 in0.0 mm
09:45 PM 69.1°F20.6°C 61.6°F16.4°C 77% 0.7 mph W1.1 kmh W 3.8 mph6.1 kmh 29.99 in1015.6 mb 0.00 in0.0 mm 0.00 in0.0 mm 0.00 in0.0 mm
10:00 PM 69.1°F20.6°C 61.2°F16.2°C 76% 0.3 mph WNW0.5 kmh WNW 2.2 mph3.5 kmh 29.99 in1015.6 mb 0.00 in0.0 mm 0.00 in0.0 mm 0.00 in0.0 mm
10:15 PM 68.9°F20.5°C 60.7°F15.9°C 75% 0.9 mph WNW1.4 kmh WNW 3.1 mph5.0 kmh 29.99 in1015.6 mb 0.00 in0.0 mm 0.00 in0.0 mm 0.00 in0.0 mm
10:30 PM 68.9°F20.5°C 60.7°F15.9°C 75% 0.3 mph W0.5 kmh W 1.6 mph2.6 kmh 29.99 in1015.6 mb 0.00 in0.0 mm 0.00 in0.0 mm 0.00 in0.0 mm
10:45 PM 68.7°F20.4°C 60.5°F15.8°C 75% 0.4 mph W0.6 kmh W 2.2 mph3.5 kmh 30.00 in1015.9 mb 0.00 in0.0 mm 0.00 in0.0 mm 0.00 in0.0 mm
11:00 PM 68.7°F20.4°C 60.5°F15.8°C 75% 0.6 mph WNW1.0 kmh WNW 3.1 mph5.0 kmh 29.99 in1015.6 mb 0.00 in0.0 mm 0.00 in0.0 mm 0.00 in0.0 mm
11:15 PM 68.7°F20.4°C 60.1°F15.6°C 74% 2.2 mph WSW3.5 kmh WSW 6.9 mph11.1 kmh 29.98 in1015.2 mb 0.00 in0.0 mm 0.00 in0.0 mm 0.00 in0.0 mm
11:30 PM 68.7°F20.4°C 59.4°F15.2°C 72% 3.1 mph WSW5.0 kmh WSW 8.3 mph13.4 kmh 29.98 in1015.2 mb 0.00 in0.0 mm 0.00 in0.0 mm 0.00 in0.0 mm
11:45 PM 68.9°F20.5°C 57.9°F14.4°C 68% 3.4 mph W5.5 kmh W 7.6 mph12.2 kmh 29.98 in1015.2 mb 0.00 in0.0 mm 0.00 in0.0 mm 0.00 in0.0 mm